createdAt,value
2018-02-21T00:01:52.125Z,18.67
2018-02-21T00:04:20.630Z,18.60
2018-02-21T00:06:49.133Z,18.50
2018-02-21T00:09:17.631Z,17.93
2018-02-21T00:11:46.139Z,19.63
2018-02-21T00:14:14.614Z,19.23
2018-02-21T00:16:43.106Z,19.10
2018-02-21T00:19:11.594Z,18.33
2018-02-21T00:21:40.082Z,17.77
2018-02-21T00:24:08.630Z,17.97
2018-02-21T00:26:37.122Z,19.10
2018-02-21T00:29:05.592Z,16.93
2018-02-21T00:31:34.076Z,18.30
2018-02-21T00:34:02.574Z,17.57
2018-02-21T00:36:31.048Z,16.53
2018-02-21T00:38:59.590Z,17.13
2018-02-21T00:41:28.050Z,17.00
2018-02-21T00:43:56.547Z,17.57
2018-02-21T00:46:25.049Z,17.63
2018-02-21T00:48:53.562Z,18.77
2018-02-21T00:51:22.003Z,18.53
2018-02-21T00:53:50.462Z,18.13
2018-02-21T00:56:18.955Z,19.57
2018-02-21T00:58:47.453Z,17.77
2018-02-21T01:01:15.906Z,18.20
2018-02-21T01:03:44.379Z,17.93
2018-02-21T01:06:12.871Z,18.47
2018-02-21T01:08:41.360Z,18.73
2018-02-21T01:11:09.855Z,18.43
2018-02-21T01:13:38.314Z,18.60
2018-02-21T01:16:06.819Z,18.57
2018-02-21T01:18:35.318Z,19.43
2018-02-21T01:21:03.814Z,18.90
2018-02-21T01:23:32.294Z,18.93
2018-02-21T01:26:00.786Z,19.90
2018-02-21T01:28:29.282Z,19.23
2018-02-21T01:30:57.742Z,18.97
2018-02-21T01:33:26.239Z,19.63
2018-02-21T01:35:54.742Z,19.67
2018-02-21T01:38:23.266Z,20.07
2018-02-21T01:40:51.740Z,19.60
2018-02-21T01:43:20.273Z,18.30
2018-02-21T01:45:48.774Z,19.27
2018-02-21T01:48:17.237Z,18.90
2018-02-21T01:50:52.505Z,18.03
2018-02-21T01:53:21.011Z,17.43
2018-02-21T01:55:49.487Z,16.80
2018-02-21T01:58:17.947Z,16.83
2018-02-21T02:00:46.464Z,17.67
2018-02-21T02:03:14.941Z,17.93
2018-02-21T02:05:43.437Z,16.97
2018-02-21T02:08:11.930Z,16.77
2018-02-21T02:10:40.445Z,16.93
2018-02-21T02:13:08.957Z,16.40
2018-02-21T02:15:37.418Z,17.47
2018-02-21T02:18:05.918Z,16.83
2018-02-21T02:20:34.411Z,17.17
2018-02-21T02:23:02.910Z,17.23
2018-02-21T02:25:31.411Z,16.87
2018-02-21T02:27:59.918Z,16.77
2018-02-21T02:30:28.417Z,16.60
2018-02-21T02:32:56.893Z,16.63
2018-02-21T02:35:25.402Z,17.87
2018-02-21T02:37:53.861Z,18.10
2018-02-21T02:40:22.376Z,17.50
2018-02-21T02:42:50.874Z,17.43
2018-02-21T02:45:19.338Z,17.87
2018-02-21T02:47:47.834Z,18.27
2018-02-21T02:50:16.299Z,17.07
2018-02-21T02:52:44.812Z,17.40
2018-02-21T02:55:13.314Z,18.13
2018-02-21T02:57:41.770Z,17.93
2018-02-21T03:00:10.345Z,18.47
2018-02-21T03:02:38.855Z,19.23
2018-02-21T03:05:07.371Z,18.50
2018-02-21T03:07:35.815Z,19.27
2018-02-21T03:10:04.343Z,18.27
2018-02-21T03:12:32.846Z,18.13
2018-02-21T03:15:01.313Z,17.60
2018-02-21T03:17:29.822Z,17.20
2018-02-21T03:19:58.281Z,16.97
2018-02-21T03:22:26.738Z,17.20
2018-02-21T03:24:55.257Z,18.07
2018-02-21T03:27:23.731Z,17.17
2018-02-21T03:29:52.202Z,16.00
2018-02-21T03:32:22.649Z,14.93
2018-02-21T03:34:51.127Z,16.37
2018-02-21T03:37:19.589Z,15.57
2018-02-21T03:39:48.124Z,15.83
2018-02-21T03:42:16.613Z,15.53
2018-02-21T03:44:45.095Z,14.37
2018-02-21T03:47:13.626Z,14.70
2018-02-21T03:49:42.102Z,15.20
2018-02-21T03:52:10.568Z,15.37
2018-02-21T03:54:39.066Z,14.97
2018-02-21T03:57:07.542Z,14.93
2018-02-21T03:59:36.135Z,15.50
2018-02-21T04:02:04.590Z,14.90
2018-02-21T04:04:33.050Z,15.57
2018-02-21T04:07:01.565Z,15.43
2018-02-21T04:09:30.090Z,18.10
2018-02-21T04:11:58.562Z,17.23
2018-02-21T04:14:27.018Z,20.63
2018-02-21T04:16:55.535Z,18.23
2018-02-21T04:19:23.998Z,16.23
2018-02-21T04:21:52.494Z,16.57
2018-02-21T04:24:20.990Z,15.33
2018-02-21T04:26:49.491Z,15.07
2018-02-21T04:29:17.950Z,14.67
2018-02-21T04:31:46.429Z,15.17
2018-02-21T04:34:14.922Z,15.60
2018-02-21T04:36:43.382Z,16.03
2018-02-21T04:39:11.898Z,13.93
2018-02-21T04:41:40.393Z,15.83
2018-02-21T04:44:08.882Z,15.20
2018-02-21T04:46:37.350Z,14.80
2018-02-21T04:49:05.847Z,15.13
2018-02-21T04:51:34.350Z,16.37
2018-02-21T04:54:02.814Z,17.83
2018-02-21T04:56:49.769Z,16.70
2018-02-21T04:59:18.813Z,16.03
2018-02-21T05:01:47.291Z,15.93
2018-02-21T05:04:15.790Z,17.43
2018-02-21T05:06:44.322Z,16.37
2018-02-21T05:09:12.773Z,17.27
2018-02-21T05:11:41.234Z,17.03
2018-02-21T05:14:09.736Z,19.37
2018-02-21T05:16:38.191Z,18.90
2018-02-21T05:19:06.685Z,18.93
2018-02-21T05:21:35.159Z,18.37
2018-02-21T05:24:03.650Z,17.23
2018-02-21T05:26:32.158Z,17.50
2018-02-21T05:29:00.649Z,17.80
2018-02-21T05:31:29.138Z,18.30
2018-02-21T05:33:57.602Z,18.37
2018-02-21T05:36:26.140Z,18.80
2018-02-21T05:38:54.639Z,16.07
2018-02-21T05:41:23.102Z,17.40
2018-02-21T05:43:51.590Z,20.67
2018-02-21T05:46:20.052Z,19.00
2018-02-21T05:48:48.566Z,21.70
2018-02-21T05:51:17.035Z,34.23
2018-02-21T05:53:45.525Z,36.57
2018-02-21T05:56:14.026Z,25.67
2018-02-21T05:58:42.526Z,20.67
2018-02-21T06:01:11.063Z,19.37
2018-02-21T06:03:39.534Z,18.13
2018-02-21T06:06:08.058Z,17.77
2018-02-21T06:08:36.504Z,17.63
2018-02-21T06:11:05.001Z,17.60
2018-02-21T06:13:33.462Z,16.87
2018-02-21T06:16:01.983Z,17.00
2018-02-21T06:18:30.493Z,15.77
2018-02-21T06:20:58.970Z,16.60
2018-02-21T06:23:27.483Z,17.37
2018-02-21T06:25:55.983Z,17.13
2018-02-21T06:28:24.461Z,16.87
2018-02-21T06:30:52.993Z,18.67
2018-02-21T06:33:21.518Z,17.23
2018-02-21T06:35:50.007Z,17.10
2018-02-21T06:38:18.507Z,18.77
2018-02-21T06:40:46.978Z,17.87
2018-02-21T06:43:15.464Z,17.53
2018-02-21T06:45:43.966Z,18.07
2018-02-21T06:48:12.452Z,16.47
2018-02-21T06:50:41.007Z,17.10
2018-02-21T06:53:09.483Z,16.93
2018-02-21T06:55:38.010Z,16.93
2018-02-21T06:58:06.491Z,17.50
2018-02-21T07:00:34.997Z,17.83
2018-02-21T07:03:03.458Z,17.00
2018-02-21T07:05:32.202Z,16.90
2018-02-21T07:08:00.748Z,15.10
2018-02-21T07:10:29.209Z,15.57
2018-02-21T07:12:57.710Z,15.23
2018-02-21T07:15:26.265Z,14.77
2018-02-21T07:17:54.717Z,18.40
2018-02-21T07:20:23.229Z,15.33
2018-02-21T07:22:51.709Z,17.13
2018-02-21T07:25:20.214Z,15.43
2018-02-21T07:27:48.677Z,13.97
2018-02-21T07:30:17.169Z,14.20
2018-02-21T07:32:45.666Z,14.77
2018-02-21T07:35:14.127Z,13.43
2018-02-21T07:37:42.630Z,13.13
2018-02-21T07:40:11.186Z,13.90
2018-02-21T07:42:39.691Z,13.43
2018-02-21T07:45:08.233Z,14.07
2018-02-21T07:47:36.726Z,13.27
2018-02-21T07:50:05.218Z,12.80
2018-02-21T07:52:33.739Z,14.07
2018-02-21T07:55:02.240Z,20.40
2018-02-21T07:57:30.790Z,20.90
2018-02-21T07:59:59.265Z,17.03
2018-02-21T08:02:27.739Z,14.60
2018-02-21T08:04:56.246Z,14.13
2018-02-21T08:07:24.751Z,14.03
2018-02-21T08:09:53.256Z,15.13
2018-02-21T08:12:21.714Z,17.00
2018-02-21T08:14:50.229Z,18.87
2018-02-21T08:17:18.742Z,18.13
2018-02-21T08:19:47.210Z,21.30
2018-02-21T08:22:15.898Z,19.37
2018-02-21T08:24:44.446Z,20.77
2018-02-21T08:27:12.955Z,24.07
2018-02-21T08:29:41.414Z,27.07
2018-02-21T08:32:09.914Z,22.97
2018-02-21T08:34:38.408Z,21.77
2018-02-21T08:37:06.931Z,21.50
2018-02-21T08:39:35.444Z,17.40
2018-02-21T08:42:03.912Z,21.10
2018-02-21T08:44:32.438Z,18.07
2018-02-21T08:47:00.944Z,14.37
2018-02-21T08:49:29.447Z,15.63
2018-02-21T08:51:57.950Z,14.43
2018-02-21T08:54:26.465Z,13.87
2018-02-21T08:56:54.938Z,14.43
2018-02-21T08:59:23.450Z,18.70
2018-02-21T09:01:51.930Z,14.47
2018-02-21T09:04:20.451Z,13.33
2018-02-21T09:06:48.961Z,13.20
2018-02-21T09:09:17.435Z,19.07
2018-02-21T09:11:45.910Z,26.20
2018-02-21T09:14:14.346Z,13.03
2018-02-21T09:16:42.921Z,15.87
2018-02-21T09:19:11.411Z,9.50
2018-02-21T09:21:39.919Z,11.20
2018-02-21T09:24:08.380Z,11.40
2018-02-21T09:26:36.841Z,9.27
2018-02-21T09:29:05.326Z,9.23
2018-02-21T09:31:33.793Z,9.90
2018-02-21T09:34:02.307Z,10.37
2018-02-21T09:36:30.804Z,10.47
2018-02-21T09:38:59.268Z,12.00
2018-02-21T09:41:27.767Z,11.10
2018-02-21T09:43:56.274Z,11.97
2018-02-21T09:46:24.814Z,11.03
2018-02-21T09:48:53.259Z,11.57
2018-02-21T09:51:21.789Z,11.10
2018-02-21T09:53:50.249Z,10.03
2018-02-21T09:56:18.714Z,11.30
2018-02-21T09:58:47.178Z,12.10
2018-02-21T10:01:15.736Z,11.23
2018-02-21T10:03:44.207Z,11.80
2018-02-21T10:06:12.713Z,12.53
2018-02-21T10:08:41.210Z,10.70
2018-02-21T10:11:09.671Z,17.10
2018-02-21T10:13:38.193Z,14.50
2018-02-21T10:16:06.666Z,9.93
2018-02-21T10:18:35.165Z,10.00
2018-02-21T10:21:03.663Z,9.87
2018-02-21T10:23:32.125Z,11.87
2018-02-21T10:26:00.636Z,9.93
2018-02-21T10:28:29.096Z,9.30
2018-02-21T10:30:57.575Z,10.93
2018-02-21T10:33:26.082Z,12.23
2018-02-21T10:35:54.571Z,10.83
2018-02-21T10:38:23.085Z,9.80
2018-02-21T10:40:51.550Z,11.10
2018-02-21T10:43:20.046Z,9.27
2018-02-21T10:45:48.548Z,9.67
2018-02-21T10:48:17.012Z,10.13
2018-02-21T10:50:45.790Z,10.27
2018-02-21T10:53:14.250Z,10.03
2018-02-21T10:55:42.758Z,11.83
2018-02-21T10:58:12.110Z,10.63
2018-02-21T11:00:46.187Z,14.47
2018-02-21T11:03:14.658Z,17.20
2018-02-21T11:05:43.165Z,16.43
2018-02-21T11:08:11.688Z,20.27
2018-02-21T11:10:40.217Z,16.33
2018-02-21T11:13:08.681Z,11.63
2018-02-21T11:15:37.147Z,12.13
2018-02-21T11:18:05.639Z,10.70
2018-02-21T11:20:34.104Z,13.33
2018-02-21T11:23:02.629Z,12.13
2018-02-21T11:25:31.101Z,10.40
2018-02-21T11:27:59.921Z,9.97
2018-02-21T11:30:28.384Z,10.50
2018-02-21T11:32:56.922Z,9.80
2018-02-21T11:35:25.444Z,11.17
2018-02-21T11:37:53.990Z,11.73
2018-02-21T11:40:22.464Z,12.77
2018-02-21T11:42:50.970Z,12.03
2018-02-21T11:45:19.466Z,13.63
2018-02-21T11:47:47.923Z,16.47
2018-02-21T11:50:16.422Z,17.97
2018-02-21T11:52:44.918Z,16.53
2018-02-21T11:55:13.382Z,20.93
2018-02-21T11:57:41.884Z,14.03
2018-02-21T12:00:10.418Z,13.40
2018-02-21T12:02:38.987Z,19.90
2018-02-21T12:05:07.493Z,22.60
2018-02-21T12:07:35.993Z,23.50
2018-02-21T12:10:04.498Z,17.77
2018-02-21T12:12:33.065Z,17.23
2018-02-21T12:15:01.567Z,22.50
2018-02-21T12:17:30.076Z,19.43
2018-02-21T12:19:58.575Z,16.93
2018-02-21T12:22:27.045Z,17.80
2018-02-21T12:24:55.556Z,18.23
2018-02-21T12:27:24.028Z,16.63
2018-02-21T12:29:52.538Z,20.43
2018-02-21T12:32:24.392Z,19.27
2018-02-21T12:34:52.912Z,20.20
2018-02-21T12:37:21.379Z,21.33
2018-02-21T12:39:49.918Z,19.93
2018-02-21T12:42:18.401Z,22.50
2018-02-21T12:44:46.884Z,21.90
2018-02-21T12:47:15.363Z,20.07
2018-02-21T12:49:43.867Z,20.30
2018-02-21T12:52:12.334Z,18.63
2018-02-21T12:54:40.872Z,20.13
2018-02-21T12:57:09.367Z,20.03
2018-02-21T12:59:37.842Z,20.57
2018-02-21T13:02:06.310Z,20.83
2018-02-21T13:04:34.814Z,22.70
2018-02-21T13:07:03.327Z,20.20
2018-02-21T13:09:31.822Z,21.77
2018-02-21T13:12:00.296Z,21.83
2018-02-21T13:14:28.838Z,19.43
2018-02-21T13:16:57.309Z,21.53
2018-02-21T13:19:25.811Z,19.13
2018-02-21T13:21:54.260Z,21.63
2018-02-21T13:24:22.754Z,23.20
2018-02-21T13:26:51.231Z,19.30
2018-02-21T13:29:19.695Z,21.50
2018-02-21T13:31:48.197Z,20.40
2018-02-21T13:34:16.664Z,20.30
2018-02-21T13:36:45.163Z,21.80
2018-02-21T13:39:13.676Z,24.20
2018-02-21T13:41:42.166Z,30.30
2018-02-21T13:44:10.638Z,25.30
2018-02-21T13:46:39.122Z,21.90
2018-02-21T13:49:07.635Z,20.93
2018-02-21T13:51:36.098Z,21.77
2018-02-21T13:54:04.614Z,21.20
2018-02-21T13:56:33.114Z,20.57
2018-02-21T13:59:01.614Z,21.03
2018-02-21T14:01:30.076Z,21.97
2018-02-21T14:03:58.586Z,22.00
2018-02-21T14:06:27.046Z,25.27
2018-02-21T14:08:55.514Z,20.57
2018-02-21T14:11:23.999Z,20.93
2018-02-21T14:13:52.461Z,22.00
2018-02-21T14:16:20.970Z,21.90
2018-02-21T14:18:49.437Z,21.53
2018-02-21T14:21:17.978Z,20.33
2018-02-21T14:23:46.439Z,18.50
2018-02-21T14:26:14.967Z,20.97
2018-02-21T14:28:43.490Z,20.50
2018-02-21T14:31:12.009Z,20.40
2018-02-21T14:33:40.510Z,19.67
2018-02-21T14:36:08.974Z,18.57
2018-02-21T14:38:37.468Z,18.00
2018-02-21T14:41:05.920Z,16.90
2018-02-21T14:43:34.434Z,18.20
2018-02-21T14:46:02.936Z,17.77
2018-02-21T14:48:31.410Z,17.50
2018-02-21T14:50:59.906Z,19.07
2018-02-21T14:53:28.414Z,17.20
2018-02-21T14:55:56.937Z,19.17
2018-02-21T14:58:25.449Z,18.23
2018-02-21T15:00:53.928Z,16.83
2018-02-21T15:03:22.418Z,20.37
2018-02-21T15:05:50.891Z,17.43
2018-02-21T15:08:19.394Z,17.83
2018-02-21T15:10:47.886Z,18.70
2018-02-21T15:13:16.380Z,17.37
2018-02-21T15:15:44.846Z,18.53
2018-02-21T15:18:13.357Z,19.37
2018-02-21T15:20:41.898Z,18.60
2018-02-21T15:23:10.351Z,18.00
2018-02-21T15:25:38.814Z,18.60
2018-02-21T15:28:07.362Z,18.33
2018-02-21T15:30:35.838Z,19.30
2018-02-21T15:33:04.337Z,19.37
2018-02-21T15:35:32.790Z,19.50
2018-02-21T15:38:01.286Z,18.57
2018-02-21T15:40:29.814Z,19.50
2018-02-21T15:42:58.318Z,21.30
2018-02-21T15:45:26.777Z,24.37
2018-02-21T15:47:55.267Z,32.17
2018-02-21T15:50:23.783Z,27.83
2018-02-21T15:52:52.277Z,32.60
2018-02-21T15:55:20.733Z,27.60
2018-02-21T15:57:49.230Z,21.33
2018-02-21T16:00:17.686Z,20.13
2018-02-21T16:02:46.187Z,21.50
2018-02-21T16:05:14.651Z,19.40
2018-02-21T16:07:43.158Z,18.57
2018-02-21T16:10:11.623Z,17.60
2018-02-21T16:12:40.097Z,18.87
2018-02-21T16:15:08.606Z,17.43
2018-02-21T16:17:37.082Z,19.27
2018-02-21T16:20:05.543Z,19.17
2018-02-21T16:22:34.086Z,18.33
2018-02-21T16:25:02.556Z,18.80
2018-02-21T16:27:31.054Z,19.63
2018-02-21T16:29:59.524Z,23.10
2018-02-21T16:32:28.042Z,24.80
2018-02-21T16:34:56.534Z,27.60
2018-02-21T16:37:25.039Z,23.83
2018-02-21T16:39:53.498Z,23.30
2018-02-21T16:42:21.956Z,20.73
2018-02-21T16:44:50.453Z,19.83
2018-02-21T16:47:18.911Z,21.30
2018-02-21T16:49:47.366Z,29.23
2018-02-21T16:52:15.855Z,27.20
2018-02-21T16:54:44.314Z,33.87
2018-02-21T16:57:12.824Z,27.03
2018-02-21T16:59:41.281Z,26.17
2018-02-21T17:02:09.762Z,21.97
2018-02-21T17:04:38.266Z,19.83
2018-02-21T17:07:06.762Z,19.27
2018-02-21T17:09:35.228Z,20.00
2018-02-21T17:12:03.737Z,18.57
2018-02-21T17:14:32.193Z,18.30
2018-02-21T17:17:00.671Z,19.73
2018-02-21T17:19:29.170Z,19.50
2018-02-21T17:21:57.647Z,21.40
2018-02-21T17:24:26.155Z,25.43
2018-02-21T17:26:54.626Z,19.63
2018-02-21T17:29:23.122Z,16.83
2018-02-21T17:31:51.665Z,19.97
2018-02-21T17:34:20.125Z,21.20
2018-02-21T17:36:48.607Z,19.90
2018-02-21T17:39:17.101Z,19.83
2018-02-21T17:41:45.566Z,18.17
2018-02-21T17:44:14.057Z,18.23
2018-02-21T17:46:42.549Z,16.80
2018-02-21T17:49:11.045Z,17.07
2018-02-21T17:51:39.506Z,17.30
2018-02-21T17:54:08.010Z,18.60
2018-02-21T17:56:36.512Z,18.77
2018-02-21T17:59:05.008Z,18.93
2018-02-21T18:01:33.465Z,18.47
2018-02-21T18:04:01.961Z,20.03
2018-02-21T18:06:30.421Z,21.03
2018-02-21T18:08:58.929Z,26.47
2018-02-21T18:11:27.386Z,48.27
2018-02-21T18:13:55.893Z,33.27
2018-02-21T18:16:24.412Z,21.83
2018-02-21T18:18:52.892Z,26.10
2018-02-21T18:21:26.845Z,25.23
2018-02-21T18:23:55.307Z,26.40
2018-02-21T18:26:23.794Z,27.67
2018-02-21T18:28:52.293Z,40.20
2018-02-21T18:31:20.807Z,28.77
2018-02-21T18:33:49.263Z,28.57
2018-02-21T18:36:17.783Z,26.60
2018-02-21T18:38:46.282Z,29.47
2018-02-21T18:41:14.734Z,26.63
2018-02-21T18:43:43.226Z,25.43
2018-02-21T18:46:11.694Z,27.30
2018-02-21T18:48:40.189Z,24.77
2018-02-21T18:51:08.694Z,23.93
2018-02-21T18:53:37.233Z,22.70
2018-02-21T18:56:05.730Z,22.07
2018-02-21T18:58:34.226Z,20.47
2018-02-21T19:01:03.668Z,27.27
2018-02-21T19:03:32.206Z,22.57
2018-02-21T19:06:00.715Z,20.83
2018-02-21T19:08:29.214Z,32.40
2018-02-21T19:10:57.719Z,23.17
2018-02-21T19:13:26.182Z,23.23
2018-02-21T19:15:54.641Z,23.40
2018-02-21T19:18:23.141Z,23.47
2018-02-21T19:20:51.624Z,25.20
2018-02-21T19:23:20.122Z,21.90
2018-02-21T19:25:48.614Z,24.03
2018-02-21T19:28:17.117Z,24.23
2018-02-21T19:30:45.570Z,24.03
2018-02-21T19:33:14.046Z,24.03
2018-02-21T19:35:42.554Z,23.73
2018-02-21T19:38:11.015Z,23.33
2018-02-21T19:40:39.527Z,25.23
2018-02-21T19:43:08.032Z,24.97
2018-02-21T19:45:36.499Z,23.57
2018-02-21T19:48:04.986Z,23.77
2018-02-21T19:50:34.377Z,23.50
2018-02-21T19:53:02.837Z,21.97
2018-02-21T19:55:31.329Z,24.23
2018-02-21T19:57:59.833Z,24.17
2018-02-21T20:00:28.285Z,22.27
2018-02-21T20:02:56.748Z,24.07
2018-02-21T20:05:25.251Z,24.20
2018-02-21T20:07:53.745Z,21.07
2018-02-21T20:10:22.241Z,20.80
2018-02-21T20:12:50.750Z,20.03
2018-02-21T20:15:19.269Z,19.03
2018-02-21T20:17:47.726Z,18.23
2018-02-21T20:20:16.186Z,19.03
2018-02-21T20:22:44.690Z,18.23
2018-02-21T20:25:13.160Z,16.67
2018-02-21T20:27:41.668Z,16.73
2018-02-21T20:30:10.178Z,17.73
2018-02-21T20:32:38.652Z,17.80
2018-02-21T20:35:07.154Z,17.00
2018-02-21T20:37:35.646Z,15.73
2018-02-21T20:40:04.106Z,16.67
2018-02-21T20:42:32.593Z,16.13
2018-02-21T20:45:01.068Z,16.50
2018-02-21T20:47:29.569Z,16.77
2018-02-21T20:49:58.083Z,16.87
2018-02-21T20:52:26.547Z,15.97
2018-02-21T20:54:55.050Z,15.80
2018-02-21T20:57:23.524Z,15.30
2018-02-21T20:59:52.027Z,16.67
2018-02-21T21:02:20.503Z,16.23
2018-02-21T21:04:49.046Z,16.43
2018-02-21T21:07:17.556Z,15.60
2018-02-21T21:09:46.062Z,15.90
2018-02-21T21:12:14.557Z,14.67
2018-02-21T21:14:43.063Z,15.13
2018-02-21T21:17:11.565Z,14.43
2018-02-21T21:19:40.029Z,15.50
2018-02-21T21:22:08.526Z,15.63
2018-02-21T21:24:37.010Z,14.20
2018-02-21T21:27:05.506Z,15.27
2018-02-21T21:29:33.970Z,15.63
2018-02-21T21:32:02.475Z,15.73
2018-02-21T21:34:30.958Z,15.80
2018-02-21T21:36:59.466Z,16.70
2018-02-21T21:39:27.927Z,17.63
2018-02-21T21:41:56.403Z,20.07
2018-02-21T21:44:24.897Z,17.60
2018-02-21T21:46:53.389Z,18.17
2018-02-21T21:49:21.907Z,18.03
2018-02-21T21:51:50.371Z,15.50
2018-02-21T21:54:18.869Z,15.30
2018-02-21T21:56:47.325Z,14.57
2018-02-21T21:59:15.894Z,14.80
2018-02-21T22:01:44.335Z,13.17
2018-02-21T22:04:12.859Z,13.33
2018-02-21T22:06:41.322Z,12.73
2018-02-21T22:09:09.792Z,12.53
2018-02-21T22:11:38.302Z,12.93
2018-02-21T22:14:06.779Z,12.97
2018-02-21T22:16:35.278Z,13.63
2018-02-21T22:19:03.770Z,13.47
2018-02-21T22:21:32.234Z,13.20
2018-02-21T22:24:00.774Z,12.73
2018-02-21T22:26:29.266Z,13.33
2018-02-21T22:28:57.774Z,13.90
2018-02-21T22:31:26.285Z,14.67
2018-02-21T22:33:54.746Z,15.33
2018-02-21T22:36:23.246Z,16.00
2018-02-21T22:38:51.705Z,16.40
2018-02-21T22:41:20.194Z,15.90
2018-02-21T22:43:48.654Z,16.80
2018-02-21T22:46:17.150Z,16.37
2018-02-21T22:48:45.645Z,16.83
2018-02-21T22:51:14.102Z,16.63
2018-02-21T22:53:42.561Z,16.57
2018-02-21T22:56:11.066Z,16.30
2018-02-21T22:58:39.580Z,16.53
2018-02-21T23:01:08.039Z,15.73
2018-02-21T23:03:36.522Z,14.97
2018-02-21T23:06:05.022Z,13.93
2018-02-21T23:08:33.510Z,14.10
2018-02-21T23:11:02.023Z,13.13
2018-02-21T23:13:30.478Z,13.07
2018-02-21T23:15:58.982Z,13.07
2018-02-21T23:18:27.458Z,13.67
2018-02-21T23:20:55.951Z,13.17
2018-02-21T23:23:24.401Z,12.50
2018-02-21T23:25:53.781Z,11.80
2018-02-21T23:28:22.236Z,12.93
2018-02-21T23:30:50.744Z,12.30
2018-02-21T23:33:19.206Z,11.17
2018-02-21T23:35:47.682Z,12.27
2018-02-21T23:38:16.137Z,12.50
2018-02-21T23:40:44.619Z,12.67
2018-02-21T23:43:13.118Z,12.43
2018-02-21T23:45:41.589Z,12.30
2018-02-21T23:48:10.073Z,12.87
2018-02-21T23:50:38.571Z,12.93
2018-02-21T23:53:07.033Z,12.70
2018-02-21T23:55:35.522Z,12.10
2018-02-21T23:58:03.982Z,11.10
